Time;durP1;ratioP1;P1;durP2;ratioP2;P2;SDS_P1;SDS_P2;PMS_P1;PMS_P2;Temp;Humidity;BMP_temperature;BMP_pressure;BME280_temperature;BME280_humidity;BME280_pressure;Samples;Min_cycle;Max_cycle;Signal;HPM_P1;HPM_P2
2022/05/13 04:44:00;;;;;;;8.93;3.30;;;;;;;;;;6243683;22;20024;-92
2022/05/13 04:46:26;;;;;;;11.13;3.30;;;;;;;;;;6232995;23;20042;-88
2022/05/13 04:48:53;;;;;;;10.73;3.50;;;;;;;;;;6239188;23;20043;-91
2022/05/13 04:51:20;;;;;;;10.77;3.60;;;;;;;;;;6242160;22;20008;-88
2022/05/13 04:53:48;;;;;;;14.32;3.60;;;;;;;;;;6241420;23;20004;-89
2022/05/13 04:56:14;;;;;;;11.27;3.40;;;;;;;;;;6241062;23;20004;-91
2022/05/13 04:59:01;;;;;;;;;;;;;;;;;;;;;
2022/05/13 05:10:13;;;;;;;12.02;4.07;;;;;;;;;;6240355;22;20062;-92
2022/05/13 06:04:30;;;;;;;17.65;6.07;;;;;;;;;;5843536;24;20512;-92
2022/05/13 08:08:45;;;;;;;20.30;3.95;;;;;;;;;;5922161;24;20092;-93
2022/05/13 08:11:26;;;;;;;;;;;;;;;;;;;;;
2022/05/13 08:17:08;;;;;;;27.95;4.13;;;;;;;;;;5851090;24;20097;-93
2022/05/13 08:19:52;;;;;;;;;;;;;;;;;;;;;
2022/05/13 08:54:55;;;;;;;;;;;;;;;;;;;;;
2022/05/13 08:58:03;;;;;;;;;;;;;;;;;;;;;
2022/05/13 09:01:14;;;;;;;;;;;;;;;;;;;;;
2022/05/13 09:22:52;;;;;;;;;;;;;;;;;;;;;
2022/05/13 09:25:37;;;;;;;21.38;3.17;;;;;;;;;;5977140;23;20190;-92
2022/05/13 10:17:11;;;;;;;8.27;2.40;;;;;;;;;;5627354;22;16061754;-92
2022/05/13 10:27:14;;;;;;;;;;;;;;;;;;;;;
2022/05/13 10:38:57;;;;;;;18.58;2.90;;;;;;;;;;6069154;23;20038;-91
2022/05/13 10:41:26;;;;;;;12.27;3.03;;;;;;;;;;6104975;23;20017;-92
2022/05/13 10:43:55;;;;;;;16.60;3.10;;;;;;;;;;6211258;22;20003;-89
2022/05/13 10:46:45;;;;;;;9.05;2.50;;;;;;;;;;6320567;22;20014;-90
2022/05/13 10:49:11;;;;;;;8.18;2.15;;;;;;;;;;6316285;22;20021;-92
2022/05/13 10:52:03;;;;;;;12.82;2.70;;;;;;;;;;6317341;22;20055;-93
2022/05/13 10:54:38;;;;;;;12.48;2.60;;;;;;;;;;6316230;22;20089;-90
2022/05/13 10:57:10;;;;;;;6.82;2.60;;;;;;;;;;6315422;22;20002;-92
2022/05/13 10:59:39;;;;;;;11.68;2.70;;;;;;;;;;6316202;22;20442;-90
2022/05/13 11:02:45;;;;;;;14.65;2.67;;;;;;;;;;6319037;22;20007;-92
2022/05/13 11:08:27;;;;;;;5.28;2.42;;;;;;;;;;6318770;22;20007;-93
2022/05/13 11:11:00;;;;;;;9.30;2.40;;;;;;;;;;6316434;22;20003;-89
2022/05/13 11:13:46;;;;;;;15.10;2.88;;;;;;;;;;6317401;22;20077;-91
2022/05/13 11:16:34;;;;;;;14.45;4.63;;;;;;;;;;6313748;22;20018;-92
2022/05/13 11:19:12;;;;;;;6.63;3.47;;;;;;;;;;6310504;22;20093;-92
2022/05/13 11:21:54;;;;;;;8.77;2.42;;;;;;;;;;6310081;22;20003;-94
2022/05/13 11:27:28;;;;;;;6.97;2.85;;;;;;;;;;6337297;22;20059;-92
2022/05/13 11:30:01;;;;;;;12.30;2.60;;;;;;;;;;6193121;22;20005;-92
2022/05/13 11:32:57;;;;;;;;;;;;;;;;;;;;;
2022/05/13 11:39:10;;;;;;;13.43;2.90;;;;;;;;;;6241925;23;20000;-92
2022/05/13 12:00:18;;;;;;;15.32;2.53;;;;;;;;;;6236651;22;20019;-93
2022/05/13 12:02:52;;;;;;;11.50;2.42;;;;;;;;;;6297839;22;19994;-96
2022/05/13 12:05:18;;;;;;;10.48;2.45;;;;;;;;;;6303130;22;20015;-91
2022/05/13 12:10:59;;;;;;;9.32;2.83;;;;;;;;;;6289903;22;20007;-92
2022/05/13 12:13:28;;;;;;;12.32;2.75;;;;;;;;;;6280450;22;20316;-91
2022/05/13 12:16:17;;;;;;;9.50;2.70;;;;;;;;;;6293527;22;20023;-92
2022/05/13 12:19:03;;;;;;;11.32;2.28;;;;;;;;;;6323776;22;20040;-90
2022/05/13 12:24:56;;;;;;;10.75;2.28;;;;;;;;;;6115966;23;20018;-91
2022/05/13 12:27:30;;;;;;;9.52;2.50;;;;;;;;;;6310507;22;20003;-91
2022/05/13 12:30:01;;;;;;;7.00;2.85;;;;;;;;;;6288381;22;20025;-91
2022/05/13 12:32:42;;;;;;;9.88;2.70;;;;;;;;;;6323036;22;20007;-94
2022/05/13 12:38:01;;;;;;;9.50;2.63;;;;;;;;;;6322839;22;20011;-92
2022/05/13 12:40:32;;;;;;;12.52;2.55;;;;;;;;;;6326804;22;20014;-90
2022/05/13 12:46:49;;;;;;;15.07;2.97;;;;;;;;;;6173701;23;20044;-91
2022/05/13 12:49:47;;;;;;;13.57;2.58;;;;;;;;;;6154058;23;20001;-92
2022/05/13 12:52:30;;;;;;;10.30;2.63;;;;;;;;;;6218389;23;20019;-91
2022/05/13 12:55:22;;;;;;;7.28;2.35;;;;;;;;;;6248815;22;20082;-91
2022/05/13 13:01:04;;;;;;;12.77;2.63;;;;;;;;;;6313465;22;20098;-90
2022/05/13 13:03:41;;;;;;;7.05;2.20;;;;;;;;;;6311419;22;20552;-91
2022/05/13 13:06:15;;;;;;;9.75;2.20;;;;;;;;;;6325103;22;20015;-91
2022/05/13 13:08:45;;;;;;;5.00;2.10;;;;;;;;;;6294167;22;19999;-91
2022/05/13 13:11:17;;;;;;;6.50;2.00;;;;;;;;;;6273149;22;20013;-91
2022/05/13 13:13:51;;;;;;;13.90;2.75;;;;;;;;;;6295570;22;19984;-92
2022/05/13 13:16:41;;;;;;;17.48;2.53;;;;;;;;;;6290561;22;20004;-90
2022/05/13 13:19:25;;;;;;;10.43;2.75;;;;;;;;;;6225078;22;20014;-93
2022/05/13 13:21:54;;;;;;;14.95;2.83;;;;;;;;;;6288028;22;20420;-92
2022/05/13 13:24:25;;;;;;;10.10;2.53;;;;;;;;;;6287338;22;20007;-95
2022/05/13 13:26:52;;;;;;;8.27;2.38;;;;;;;;;;6280399;22;20060;-94
2022/05/13 13:29:20;;;;;;;6.57;2.33;;;;;;;;;;6280118;22;20052;-94
2022/05/13 13:31:48;;;;;;;5.80;2.17;;;;;;;;;;6286014;22;20152;-91
2022/05/13 13:34:25;;;;;;;15.02;2.75;;;;;;;;;;6278719;22;20427;-90
2022/05/13 13:36:51;;;;;;;7.93;2.05;;;;;;;;;;6276939;22;20343;-89
2022/05/13 13:39:19;;;;;;;12.38;2.50;;;;;;;;;;6280701;22;20082;-95
2022/05/13 13:41:47;;;;;;;12.18;2.40;;;;;;;;;;6285126;22;20095;-94
2022/05/13 13:44:16;;;;;;;11.73;2.67;;;;;;;;;;6285236;22;20011;-95
2022/05/13 13:46:44;;;;;;;11.65;2.83;;;;;;;;;;6282559;22;20014;-93
2022/05/13 13:49:15;;;;;;;9.90;2.35;;;;;;;;;;6278554;22;20399;-93
2022/05/13 13:51:52;;;;;;;9.63;2.83;;;;;;;;;;6276324;22;20015;-91
2022/05/13 13:54:19;;;;;;;14.25;2.58;;;;;;;;;;6284512;22;20459;-96
2022/05/13 13:56:54;;;;;;;9.65;2.28;;;;;;;;;;6286426;22;20003;-94
2022/05/13 13:59:32;;;;;;;13.27;2.40;;;;;;;;;;6277054;22;20431;-90
2022/05/13 14:04:51;;;;;;;9.35;2.00;;;;;;;;;;6288100;22;20015;-91
2022/05/13 14:07:19;;;;;;;12.23;2.17;;;;;;;;;;6285281;22;19987;-90
2022/05/13 14:09:46;;;;;;;10.63;2.67;;;;;;;;;;6284159;22;20044;-90
2022/05/13 14:12:14;;;;;;;8.77;3.30;;;;;;;;;;6282934;22;20000;-92
2022/05/13 14:14:40;;;;;;;;;;;;;;;;;;6283573;22;20044;-91
2022/05/13 14:17:09;;;;;;;13.35;2.58;;;;;;;;;;6333944;22;19982;-89
2022/05/13 14:19:59;;;;;;;6.10;2.42;;;;;;;;;;6288368;22;19995;-94
2022/05/13 14:22:25;;;;;;;9.30;2.35;;;;;;;;;;6284427;22;20003;-91
2022/05/13 14:25:01;;;;;;;6.13;2.20;;;;;;;;;;6285640;22;20700;-92
2022/05/13 14:27:28;;;;;;;9.25;2.22;;;;;;;;;;6283554;22;20008;-92
2022/05/13 14:29:58;;;;;;;11.15;2.25;;;;;;;;;;6281938;22;20008;-91
2022/05/13 14:32:31;;;;;;;9.68;2.78;;;;;;;;;;6283947;22;20007;-90
2022/05/13 14:35:08;;;;;;;11.68;3.10;;;;;;;;;;6315798;22;20004;-90
2022/05/13 14:37:36;;;;;;;11.30;2.40;;;;;;;;;;6289090;22;20007;-89
2022/05/13 14:40:02;;;;;;;;;;;;;;;;;;6292942;22;20098;-92
2022/05/13 14:42:58;;;;;;;15.88;2.50;;;;;;;;;;6313869;22;19899;-90
2022/05/13 14:45:27;;;;;;;8.55;2.30;;;;;;;;;;6292818;22;20015;-95
2022/05/13 14:48:10;;;;;;;8.77;2.30;;;;;;;;;;6286707;22;20022;-93
2022/05/13 14:50:37;;;;;;;8.65;2.42;;;;;;;;;;6285855;22;20010;-93
2022/05/13 14:53:39;;;;;;;6.05;2.08;;;;;;;;;;6289838;22;20003;-89
2022/05/13 14:56:28;;;;;;;8.77;2.40;;;;;;;;;;6279261;22;20332;-91
2022/05/13 14:58:58;;;;;;;6.97;2.08;;;;;;;;;;6283141;22;20007;-90
2022/05/13 15:01:26;;;;;;;16.27;2.58;;;;;;;;;;6282569;22;20419;-90
2022/05/13 15:04:15;;;;;;;11.82;2.63;;;;;;;;;;6282882;22;20030;-94
2022/05/13 15:06:44;;;;;;;9.15;2.67;;;;;;;;;;6308782;22;20502;-91
2022/05/13 15:09:29;;;;;;;13.73;2.47;;;;;;;;;;6282437;22;20463;-90
2022/05/13 15:12:33;;;;;;;17.95;3.17;;;;;;;;;;6281654;22;20034;-93
2022/05/13 15:14:55;;;;;;;10.35;2.50;;;;;;;;;;6306523;22;20059;-93
2022/05/13 15:17:21;;;;;;;9.13;2.80;;;;;;;;;;6283464;22;20011;-92
2022/05/13 15:19:59;;;;;;;;;;;;;;;;;;;;;
2022/05/13 15:22:34;;;;;;;11.35;2.58;;;;;;;;;;6315372;22;20038;-90
2022/05/13 15:25:00;;;;;;;10.65;2.25;;;;;;;;;;6289177;22;20012;-93
2022/05/13 15:27:28;;;;;;;11.60;2.67;;;;;;;;;;6288490;22;20024;-93
2022/05/13 15:29:56;;;;;;;10.87;3.13;;;;;;;;;;6290936;22;20007;-92
2022/05/13 15:32:29;;;;;;;8.02;2.20;;;;;;;;;;6285650;22;20236;-90
2022/05/13 15:35:03;;;;;;;10.30;2.40;;;;;;;;;;6285574;22;20038;-91
2022/05/13 15:37:29;;;;;;;12.60;2.80;;;;;;;;;;6292274;22;20013;-91
2022/05/13 15:40:10;;;;;;;7.82;2.47;;;;;;;;;;6314926;22;20005;-89
2022/05/13 15:42:45;;;;;;;7.28;2.30;;;;;;;;;;6290424;22;20003;-89
2022/05/13 15:45:16;;;;;;;13.18;2.25;;;;;;;;;;6311376;22;20011;-90
2022/05/13 15:47:51;;;;;;;7.53;2.20;;;;;;;;;;6286217;22;20007;-93
2022/05/13 15:53:14;;;;;;;5.75;2.17;;;;;;;;;;6320919;22;20071;-93
2022/05/13 15:55:44;;;;;;;14.55;2.72;;;;;;;;;;6283151;22;20013;-95
2022/05/13 15:58:24;;;;;;;10.40;2.50;;;;;;;;;;6280856;22;20072;-94
2022/05/13 16:00:52;;;;;;;11.23;2.88;;;;;;;;;;6288979;22;20034;-96
2022/05/13 16:03:25;;;;;;;11.43;2.80;;;;;;;;;;6289999;22;20011;-94
2022/05/13 16:05:53;;;;;;;13.02;2.85;;;;;;;;;;6286172;22;20010;-92
2022/05/13 16:08:19;;;;;;;20.65;2.83;;;;;;;;;;6278656;22;20061;-96
2022/05/13 16:10:48;;;;;;;8.82;2.28;;;;;;;;;;6277465;22;20018;-92
2022/05/13 16:13:22;;;;;;;9.15;2.60;;;;;;;;;;6276903;22;20351;-91
2022/05/13 16:15:52;;;;;;;7.10;2.03;;;;;;;;;;6276959;22;20141;-92
2022/05/13 16:18:23;;;;;;;9.60;2.45;;;;;;;;;;6276982;22;20086;-91
2022/05/13 16:20:50;;;;;;;10.07;2.28;;;;;;;;;;6306941;22;20009;-93
2022/05/13 16:23:21;;;;;;;7.70;2.50;;;;;;;;;;6277692;22;20010;-92
2022/05/13 16:25:48;;;;;;;12.23;2.92;;;;;;;;;;6276769;22;20636;-90
2022/05/13 16:28:16;;;;;;;10.13;2.20;;;;;;;;;;6276932;22;20004;-96
2022/05/13 16:30:42;;;;;;;16.23;2.70;;;;;;;;;;6276419;22;20023;-96
2022/05/13 16:33:08;;;;;;;6.50;2.08;;;;;;;;;;6276999;22;20125;-94
2022/05/13 16:35:34;;;;;;;10.95;2.67;;;;;;;;;;6279850;22;20067;-90
2022/05/13 16:38:00;;;;;;;14.13;3.05;;;;;;;;;;6276718;22;20084;-90
2022/05/13 16:40:28;;;;;;;13.85;2.70;;;;;;;;;;6281694;22;20089;-90
2022/05/13 16:42:54;;;;;;;9.68;2.35;;;;;;;;;;6280521;22;20007;-91
2022/05/13 16:45:21;;;;;;;6.75;2.50;;;;;;;;;;6282761;22;20038;-96
2022/05/13 16:47:55;;;;;;;10.48;2.55;;;;;;;;;;6257023;22;20008;-90
2022/05/13 16:50:23;;;;;;;13.90;2.35;;;;;;;;;;6279107;22;20458;-91
2022/05/13 16:52:49;;;;;;;;;;;;;;;;;;6280157;22;19990;-92
2022/05/13 16:55:15;;;;;;;17.52;2.35;;;;;;;;;;6331704;22;19923;-91
2022/05/13 16:57:42;;;;;;;8.88;2.28;;;;;;;;;;6283873;22;20007;-94
2022/05/13 17:00:10;;;;;;;24.67;2.85;;;;;;;;;;6282152;22;20007;-95
2022/05/13 17:02:37;;;;;;;15.68;2.60;;;;;;;;;;6282465;22;20007;-92
2022/05/13 17:05:04;;;;;;;8.00;2.47;;;;;;;;;;6278583;22;20019;-90
2022/05/13 17:07:30;;;;;;;10.77;2.47;;;;;;;;;;6279089;22;19999;-90
2022/05/13 17:18:10;;;;;;;8.70;2.58;;;;;;;;;;6308238;22;20015;-93
2022/05/13 17:20:37;;;;;;;10.18;2.35;;;;;;;;;;6290406;22;20102;-89
2022/05/13 17:23:23;;;;;;;11.05;2.40;;;;;;;;;;6287181;22;20044;-94
2022/05/13 17:26:03;;;;;;;9.45;2.20;;;;;;;;;;6285885;22;20017;-91
2022/05/13 17:28:29;;;;;;;15.18;2.42;;;;;;;;;;6291876;22;19999;-94
2022/05/13 17:30:55;;;;;;;10.43;2.50;;;;;;;;;;6293637;22;20018;-90
2022/05/13 17:33:22;;;;;;;10.68;2.67;;;;;;;;;;6287191;22;20007;-90
2022/05/13 17:35:51;;;;;;;7.47;2.30;;;;;;;;;;6269958;22;20033;-92
2022/05/13 17:38:17;;;;;;;10.73;2.40;;;;;;;;;;6296279;22;20007;-89
2022/05/13 17:40:44;;;;;;;13.70;2.40;;;;;;;;;;6280552;22;20073;-95
2022/05/13 17:43:13;;;;;;;14.70;2.87;;;;;;;;;;6282763;22;20007;-94
2022/05/13 17:45:38;;;;;;;;;;;;;;;;;;6283162;22;20022;-91
2022/05/13 17:48:05;;;;;;;6.72;2.30;;;;;;;;;;6332986;22;19899;-89
2022/05/13 17:50:32;;;;;;;9.57;2.22;;;;;;;;;;6283881;22;20030;-91
2022/05/13 17:52:58;;;;;;;12.05;2.20;;;;;;;;;;6278762;22;20017;-92
2022/05/13 17:55:24;;;;;;;14.15;2.10;;;;;;;;;;6282382;22;20027;-94
2022/05/13 17:57:51;;;;;;;9.95;2.45;;;;;;;;;;6288870;22;20023;-91
2022/05/13 18:00:18;;;;;;;5.63;2.13;;;;;;;;;;6312294;22;20348;-91
2022/05/13 18:02:45;;;;;;;11.70;2.20;;;;;;;;;;6280360;22;20003;-92
2022/05/13 18:05:11;;;;;;;9.68;2.20;;;;;;;;;;6276547;22;20448;-92
2022/05/13 18:07:38;;;;;;;11.13;2.95;;;;;;;;;;6280493;22;20440;-92
2022/05/13 18:10:05;;;;;;;10.90;2.20;;;;;;;;;;6284760;22;20007;-92
2022/05/13 18:12:31;;;;;;;8.75;2.17;;;;;;;;;;6258456;22;20474;-91
2022/05/13 18:14:58;;;;;;;23.67;2.40;;;;;;;;;;6277446;22;20078;-91
2022/05/13 18:17:24;;;;;;;10.82;2.20;;;;;;;;;;6303653;22;20017;-92
2022/05/13 18:19:55;;;;;;;14.32;2.30;;;;;;;;;;6277167;22;20078;-92
2022/05/13 18:22:22;;;;;;;7.78;2.47;;;;;;;;;;6276483;22;20007;-91
2022/05/13 18:24:49;;;;;;;9.00;2.40;;;;;;;;;;6281030;22;20011;-94
2022/05/13 18:27:15;;;;;;;12.50;2.15;;;;;;;;;;6280873;22;20007;-94
2022/05/13 18:29:41;;;;;;;12.43;2.15;;;;;;;;;;6280491;22;20852;-93
2022/05/13 18:32:08;;;;;;;10.13;1.92;;;;;;;;;;6280225;22;20048;-91
2022/05/13 18:34:34;;;;;;;12.98;2.40;;;;;;;;;;6282638;22;20086;-92
2022/05/13 18:37:03;;;;;;;6.57;2.15;;;;;;;;;;6281798;22;19999;-92
2022/05/13 18:39:29;;;;;;;10.88;2.30;;;;;;;;;;6285907;22;20090;-93
2022/05/13 18:47:42;;;;;;;11.60;2.20;;;;;;;;;;6308442;22;20348;-90
2022/05/13 18:50:08;;;;;;;8.25;2.05;;;;;;;;;;6283403;22;20007;-90
2022/05/13 18:52:34;;;;;;;12.38;2.30;;;;;;;;;;6281631;22;20471;-90
2022/05/13 18:55:00;;;;;;;7.43;2.13;;;;;;;;;;6278878;22;20439;-92
2022/05/13 18:57:26;;;;;;;10.85;2.38;;;;;;;;;;6278407;22;20006;-93
2022/05/13 18:59:52;;;;;;;6.50;2.17;;;;;;;;;;6279153;22;20019;-92
2022/05/13 19:02:18;;;;;;;6.15;2.22;;;;;;;;;;6285359;22;20011;-91
2022/05/13 19:04:46;;;;;;;10.18;2.30;;;;;;;;;;6281642;22;20114;-93
2022/05/13 19:07:12;;;;;;;4.47;2.00;;;;;;;;;;6278160;22;20339;-88
2022/05/13 19:09:38;;;;;;;9.98;2.40;;;;;;;;;;6283327;22;20026;-92
2022/05/13 19:12:05;;;;;;;7.05;2.67;;;;;;;;;;6291360;22;20424;-90
2022/05/13 19:14:31;;;;;;;8.35;2.40;;;;;;;;;;6277836;22;20003;-91
2022/05/13 19:16:57;;;;;;;13.40;2.20;;;;;;;;;;6278964;22;20264;-91
2022/05/13 19:19:23;;;;;;;9.02;2.00;;;;;;;;;;6284906;22;20061;-90
2022/05/13 19:21:49;;;;;;;4.65;1.95;;;;;;;;;;6281240;22;20064;-93
2022/05/13 19:24:15;;;;;;;6.70;2.20;;;;;;;;;;6287704;22;20010;-92
2022/05/13 19:26:41;;;;;;;7.70;2.38;;;;;;;;;;6290696;22;20008;-91
2022/05/13 19:29:08;;;;;;;7.47;2.10;;;;;;;;;;6318313;22;20025;-89
2022/05/13 19:31:37;;;;;;;6.00;2.17;;;;;;;;;;6317613;22;20100;-92
2022/05/13 19:34:03;;;;;;;11.55;2.10;;;;;;;;;;6289338;22;20004;-92
2022/05/13 19:36:29;;;;;;;17.48;2.17;;;;;;;;;;6288535;22;20007;-93
2022/05/13 19:39:29;;;;;;;8.63;2.08;;;;;;;;;;6292700;22;19999;-95
2022/05/13 19:41:55;;;;;;;7.20;1.75;;;;;;;;;;6172921;23;20013;-91
2022/05/13 19:44:21;;;;;;;7.72;2.28;;;;;;;;;;6166186;23;20453;-91
2022/05/13 19:46:48;;;;;;;7.90;1.77;;;;;;;;;;6260001;22;20008;-94
2022/05/13 19:49:14;;;;;;;6.35;2.17;;;;;;;;;;6289217;22;20431;-93
2022/05/13 19:52:07;;;;;;;;;;;;;;;;;;;;;
2022/05/13 19:55:41;;;;;;;;;;;;;;;;;;;;;
2022/05/13 19:58:25;;;;;;;5.15;1.90;;;;;;;;;;6256234;23;20019;-92
2022/05/13 20:04:19;;;;;;;8.88;1.92;;;;;;;;;;6199269;23;20462;-92
2022/05/13 20:12:47;;;;;;;6.78;2.22;;;;;;;;;;6189107;23;20031;-93
2022/05/13 20:15:13;;;;;;;8.68;2.03;;;;;;;;;;6164275;23;20088;-93
2022/05/13 20:17:39;;;;;;;6.55;2.00;;;;;;;;;;6164210;23;20013;-93
2022/05/13 20:23:01;;;;;;;5.57;2.00;;;;;;;;;;6321420;22;20034;-89
2022/05/13 20:25:31;;;;;;;8.85;2.63;;;;;;;;;;6292885;22;20011;-89
2022/05/13 20:27:58;;;;;;;7.85;2.03;;;;;;;;;;6289523;22;20006;-88
2022/05/13 20:30:25;;;;;;;12.93;3.10;;;;;;;;;;6289755;22;20008;-91
2022/05/13 20:32:54;;;;;;;4.07;1.70;;;;;;;;;;6290425;22;20005;-92
2022/05/13 20:35:21;;;;;;;8.93;2.05;;;;;;;;;;6296762;22;20063;-90
2022/05/13 20:37:47;;;;;;;5.72;2.17;;;;;;;;;;6279297;22;20083;-90
2022/05/13 20:40:15;;;;;;;9.60;2.45;;;;;;;;;;6308186;22;20052;-91
2022/05/13 20:42:45;;;;;;;11.63;2.05;;;;;;;;;;6284255;22;20014;-90
2022/05/13 20:45:11;;;;;;;7.80;2.17;;;;;;;;;;6279722;22;20015;-92
2022/05/13 20:47:59;;;;;;;5.22;2.25;;;;;;;;;;6282958;22;19999;-91
2022/05/13 20:50:25;;;;;;;7.20;3.20;;;;;;;;;;6308645;22;20007;-94
2022/05/13 20:53:16;;;;;;;22.33;10.43;;;;;;;;;;6285814;22;19999;-93
2022/05/13 20:55:44;;;;;;;8.25;2.10;;;;;;;;;;6291240;22;20042;-91
2022/05/13 20:58:10;;;;;;;5.82;2.15;;;;;;;;;;6289378;22;19999;-91
2022/05/13 21:00:36;;;;;;;8.85;2.17;;;;;;;;;;6291910;22;20003;-92
2022/05/13 21:03:02;;;;;;;7.90;3.05;;;;;;;;;;6295441;22;20083;-91
2022/05/13 21:05:38;;;;;;;5.78;2.63;;;;;;;;;;6295566;22;19991;-91
2022/05/13 21:08:14;;;;;;;10.98;2.90;;;;;;;;;;6314769;22;20021;-89
2022/05/13 21:10:41;;;;;;;12.57;4.25;;;;;;;;;;6279759;22;20007;-91
2022/05/13 21:13:10;;;;;;;5.57;2.47;;;;;;;;;;6282514;22;20034;-92
2022/05/13 21:15:37;;;;;;;8.73;3.67;;;;;;;;;;6282097;22;20003;-91
2022/05/13 21:18:04;;;;;;;15.55;6.30;;;;;;;;;;6283847;22;20003;-92
2022/05/13 21:20:31;;;;;;;28.55;12.77;;;;;;;;;;6281223;22;20014;-89
2022/05/13 21:22:57;;;;;;;7.78;3.45;;;;;;;;;;6280548;22;20171;-92
2022/05/13 21:25:24;;;;;;;10.77;5.25;;;;;;;;;;6280358;22;20439;-91
2022/05/13 21:28:13;;;;;;;14.82;4.60;;;;;;;;;;6283072;22;20004;-93
2022/05/13 21:30:43;;;;;;;10.93;4.32;;;;;;;;;;6264535;22;20004;-91
2022/05/13 21:38:39;;;;;;;48.92;23.63;;;;;;;;;;6314849;22;20061;-92
2022/05/13 21:41:07;;;;;;;41.08;18.45;;;;;;;;;;6284431;22;20013;-91
2022/05/13 21:43:56;;;;;;;27.40;14.10;;;;;;;;;;6282152;22;19999;-93
2022/05/13 21:46:23;;;;;;;36.30;21.10;;;;;;;;;;6305145;22;20018;-91
2022/05/13 21:48:49;;;;;;;;;;;;;;;;;;6286786;22;20010;-94
2022/05/13 21:54:04;;;;;;;32.38;17.10;;;;;;;;;;6265793;22;20490;-92
2022/05/13 21:56:30;;;;;;;97.65;41.67;;;;;;;;;;6284458;22;20007;-93
2022/05/13 21:58:56;;;;;;;39.17;18.40;;;;;;;;;;6283035;22;20010;-91
2022/05/13 22:01:29;;;;;;;25.08;14.18;;;;;;;;;;6284092;22;20044;-93
2022/05/13 22:04:03;;;;;;;26.95;15.15;;;;;;;;;;6285285;22;20010;-91
2022/05/13 22:06:36;;;;;;;29.92;16.15;;;;;;;;;;6285900;22;20422;-90
2022/05/13 22:09:03;;;;;;;15.75;8.73;;;;;;;;;;6284661;22;20010;-91
2022/05/13 22:11:35;;;;;;;53.33;27.60;;;;;;;;;;6282203;22;20292;-92
2022/05/13 22:14:01;;;;;;;62.58;28.95;;;;;;;;;;6279338;22;20027;-93
2022/05/13 22:16:27;;;;;;;52.03;24.02;;;;;;;;;;6278300;22;19999;-91
2022/05/13 22:19:10;;;;;;;31.35;20.45;;;;;;;;;;6278333;22;20007;-90
2022/05/13 22:21:36;;;;;;;48.20;20.08;;;;;;;;;;6280989;22;20007;-92
2022/05/13 22:24:02;;;;;;;97.47;39.65;;;;;;;;;;6279317;22;20011;-91
2022/05/13 22:26:34;;;;;;;49.63;24.08;;;;;;;;;;6281844;22;20011;-92
2022/05/13 22:29:03;;;;;;;6.65;3.05;;;;;;;;;;6309165;22;20080;-91
2022/05/13 22:31:39;;;;;;;84.25;43.38;;;;;;;;;;6282019;22;20007;-92
2022/05/13 22:34:26;;;;;;;97.90;47.05;;;;;;;;;;6281518;22;20465;-95
2022/05/13 22:36:55;;;;;;;76.85;36.97;;;;;;;;;;6280416;22;20007;-95
2022/05/13 22:39:21;;;;;;;161.30;62.95;;;;;;;;;;6280631;22;20351;-93
2022/05/13 22:42:10;;;;;;;108.05;50.92;;;;;;;;;;6300282;22;19991;-92
2022/05/13 22:44:44;;;;;;;11.35;2.90;;;;;;;;;;6304911;22;19999;-91
2022/05/13 22:47:10;;;;;;;13.48;2.70;;;;;;;;;;6283619;22;19999;-92
2022/05/13 22:49:36;;;;;;;7.32;2.90;;;;;;;;;;6282220;22;20008;-91
2022/05/13 22:52:04;;;;;;;11.75;2.80;;;;;;;;;;6282178;22;20011;-92
2022/05/13 22:54:30;;;;;;;9.07;3.03;;;;;;;;;;6284243;22;20022;-92
2022/05/13 22:56:56;;;;;;;10.73;2.65;;;;;;;;;;6280353;22;20003;-94
2022/05/13 22:59:22;;;;;;;13.15;3.10;;;;;;;;;;6279480;22;20007;-92
2022/05/13 23:01:48;;;;;;;7.07;2.80;;;;;;;;;;6281236;22;20019;-91
2022/05/13 23:04:14;;;;;;;15.70;3.67;;;;;;;;;;6279590;22;19999;-92
2022/05/13 23:12:14;;;;;;;12.35;3.38;;;;;;;;;;6309347;22;20030;-91
2022/05/13 23:14:50;;;;;;;264.88;89.07;;;;;;;;;;6281793;22;20003;-93
2022/05/13 23:17:16;;;;;;;5.82;2.58;;;;;;;;;;6280436;22;20003;-89
2022/05/13 23:19:43;;;;;;;287.25;85.13;;;;;;;;;;6282795;22;20011;-88
2022/05/13 23:22:09;;;;;;;12.98;3.17;;;;;;;;;;6282862;22;20301;-88
2022/05/13 23:24:35;;;;;;;10.93;3.88;;;;;;;;;;6282010;22;20011;-93
2022/05/13 23:27:01;;;;;;;13.38;3.45;;;;;;;;;;6284439;22;20007;-95
2022/05/13 23:29:27;;;;;;;10.80;3.30;;;;;;;;;;6281957;22;20032;-91
2022/05/13 23:31:55;;;;;;;11.57;3.67;;;;;;;;;;6282148;22;20007;-92
2022/05/13 23:34:22;;;;;;;13.00;3.35;;;;;;;;;;6281231;22;20004;-92
2022/05/13 23:36:48;;;;;;;6.15;3.00;;;;;;;;;;6286182;22;20075;-93
2022/05/13 23:39:14;;;;;;;234.75;66.82;;;;;;;;;;6283274;22;19999;-88
2022/05/13 23:41:40;;;;;;;12.10;3.45;;;;;;;;;;6283152;22;20006;-93
2022/05/13 23:44:26;;;;;;;340.35;93.63;;;;;;;;;;6281871;22;19999;-90
2022/05/13 23:46:54;;;;;;;14.18;3.30;;;;;;;;;;6284729;22;20451;-88
2022/05/13 23:49:20;;;;;;;312.60;96.80;;;;;;;;;;6284599;22;20130;-90
2022/05/13 23:51:46;;;;;;;13.43;3.10;;;;;;;;;;6284949;22;20003;-89
2022/05/13 23:56:57;;;;;;;7.00;3.53;;;;;;;;;;6309904;22;20017;-89
2022/05/13 23:59:30;;;;;;;10.88;3.38;;;;;;;;;;6282547;22;20011;-90
